createdAt,value
2022-09-03T00:00:52.507Z,6.60
2022-09-03T00:03:22.897Z,3.42
2022-09-03T00:06:01.671Z,4.00
2022-09-03T00:08:40.755Z,4.20
2022-09-03T00:11:22.154Z,4.60
2022-09-03T00:13:52.475Z,6.47
2022-09-03T00:16:23.502Z,4.10
2022-09-03T00:18:56.578Z,4.55
2022-09-03T00:21:41.510Z,6.10
2022-09-03T00:24:14.215Z,4.70
2022-09-03T00:26:47.303Z,5.60
2022-09-03T00:29:23.549Z,3.88
2022-09-03T00:32:05.218Z,5.82
2022-09-03T00:34:35.954Z,4.55
2022-09-03T00:37:03.829Z,4.55
2022-09-03T00:39:30.568Z,4.70
2022-09-03T00:42:12.538Z,4.38
2022-09-03T00:45:06.828Z,4.47
2022-09-03T00:47:57.572Z,4.70
2022-09-03T00:50:50.223Z,4.70
2022-09-03T00:53:52.205Z,4.30
2022-09-03T00:56:21.855Z,6.63
2022-09-03T00:59:03.519Z,4.82
2022-09-03T01:01:55.665Z,4.78
2022-09-03T01:04:28.165Z,5.70
2022-09-03T01:07:06.694Z,4.00
2022-09-03T01:09:58.190Z,3.97
2022-09-03T01:12:35.197Z,4.75
2022-09-03T01:15:22.602Z,3.97
2022-09-03T01:18:07.272Z,3.97
2022-09-03T01:20:51.123Z,4.68
2022-09-03T01:23:28.802Z,4.75
2022-09-03T01:26:16.239Z,5.97
2022-09-03T01:29:12.403Z,4.88
2022-09-03T01:32:23.898Z,4.13
2022-09-03T01:34:56.523Z,4.75
2022-09-03T01:37:54.742Z,4.93
2022-09-03T01:40:30.243Z,6.28
2022-09-03T01:43:20.246Z,4.35
2022-09-03T01:46:01.667Z,6.50
2022-09-03T01:48:56.360Z,4.88
2022-09-03T01:51:29.902Z,5.85
2022-09-03T01:54:21.095Z,4.45
2022-09-03T01:57:36.924Z,5.13
2022-09-03T02:00:16.507Z,4.43
2022-09-03T02:02:48.214Z,4.43
2022-09-03T02:05:18.191Z,4.68
2022-09-03T02:07:53.110Z,3.95
2022-09-03T02:10:34.333Z,3.70
2022-09-03T02:13:07.380Z,7.70
2022-09-03T02:15:37.431Z,6.30
2022-09-03T02:18:11.173Z,6.80
2022-09-03T02:20:38.694Z,5.43
2022-09-03T02:23:05.594Z,5.10
2022-09-03T02:25:40.134Z,5.60
2022-09-03T02:28:27.405Z,4.70
2022-09-03T02:30:54.627Z,4.90
2022-09-03T02:33:21.421Z,4.53
2022-09-03T02:35:49.026Z,5.25
2022-09-03T02:38:18.744Z,5.38
2022-09-03T02:40:46.006Z,4.68
2022-09-03T02:43:37.555Z,4.00
2022-09-03T02:46:08.410Z,4.82
2022-09-03T02:48:35.726Z,5.70
2022-09-03T02:51:02.366Z,6.10
2022-09-03T02:53:40.818Z,4.95
2022-09-03T02:56:07.536Z,7.05
2022-09-03T02:58:34.374Z,6.35
2022-09-03T03:01:01.703Z,6.03
2022-09-03T03:03:28.626Z,5.60
2022-09-03T03:05:58.464Z,5.97
2022-09-03T03:08:28.714Z,6.18
2022-09-03T03:10:58.911Z,7.88
2022-09-03T03:13:26.918Z,6.93
2022-09-03T03:16:03.411Z,5.80
2022-09-03T03:18:30.435Z,5.95
2022-09-03T03:20:57.166Z,5.35
2022-09-03T03:23:23.975Z,6.40
2022-09-03T03:25:50.659Z,4.75
2022-09-03T03:28:20.395Z,6.35
2022-09-03T03:30:48.736Z,5.93
2022-09-03T03:33:15.636Z,6.88
2022-09-03T03:35:42.977Z,5.55
2022-09-03T03:38:09.879Z,5.90
2022-09-03T03:40:39.005Z,5.28
2022-09-03T03:43:05.725Z,7.57
2022-09-03T03:45:32.519Z,5.88
2022-09-03T03:47:59.576Z,5.13
2022-09-03T03:50:26.507Z,5.22
2022-09-03T03:52:53.223Z,5.45
2022-09-03T03:55:19.915Z,6.35
2022-09-03T03:57:46.972Z,4.57
2022-09-03T04:00:14.547Z,4.38
2022-09-03T04:02:41.265Z,5.47
2022-09-03T04:05:08.396Z,4.60
2022-09-03T04:07:35.127Z,7.45
2022-09-03T04:10:01.886Z,5.82
2022-09-03T04:12:28.617Z,5.32
2022-09-03T04:14:55.289Z,5.03
2022-09-03T04:17:25.141Z,4.60
2022-09-03T04:19:52.225Z,5.43
2022-09-03T04:22:20.776Z,5.07
2022-09-03T04:24:47.471Z,5.55
2022-09-03T04:27:14.295Z,4.63
2022-09-03T04:29:41.323Z,5.25
2022-09-03T04:32:26.757Z,4.65
2022-09-03T04:34:53.451Z,4.40
2022-09-03T04:37:20.413Z,4.72
2022-09-03T04:39:47.362Z,5.32
2022-09-03T04:42:14.109Z,5.25
2022-09-03T04:44:41.333Z,6.88
2022-09-03T04:47:08.268Z,4.88
2022-09-03T04:49:35.066Z,5.10
2022-09-03T04:52:03.565Z,5.95
2022-09-03T04:54:30.271Z,4.85
2022-09-03T04:56:57.030Z,5.18
2022-09-03T04:59:23.705Z,5.25
2022-09-03T05:01:52.841Z,8.75
2022-09-03T05:04:19.903Z,5.35
2022-09-03T05:06:46.656Z,5.00
2022-09-03T05:09:13.538Z,6.80
2022-09-03T05:11:40.238Z,5.18
2022-09-03T05:14:07.282Z,5.45
2022-09-03T05:16:34.100Z,6.63
2022-09-03T05:19:01.482Z,6.88
2022-09-03T05:21:29.426Z,5.55
2022-09-03T05:23:56.599Z,6.63
2022-09-03T05:26:26.122Z,5.72
2022-09-03T05:28:57.681Z,5.07
2022-09-03T05:31:26.811Z,5.03
2022-09-03T05:33:59.058Z,7.10
2022-09-03T05:36:31.554Z,6.22
2022-09-03T05:38:59.242Z,7.00
2022-09-03T05:41:27.153Z,7.30
2022-09-03T05:44:01.162Z,5.97
2022-09-03T05:46:32.212Z,6.60
2022-09-03T05:49:04.022Z,6.35
2022-09-03T05:51:31.901Z,5.45
2022-09-03T05:53:58.935Z,5.50
2022-09-03T05:56:27.986Z,5.38
2022-09-03T05:58:59.811Z,6.10
2022-09-03T06:01:29.647Z,4.57
2022-09-03T06:04:00.287Z,6.35
2022-09-03T06:06:28.326Z,6.90
2022-09-03T06:08:56.270Z,6.18
2022-09-03T06:11:29.849Z,5.72
2022-09-03T06:13:57.698Z,6.53
2022-09-03T06:16:30.567Z,9.45
2022-09-03T06:19:00.206Z,8.88
2022-09-03T06:21:27.464Z,6.18
2022-09-03T06:23:59.985Z,6.60
2022-09-03T06:26:29.206Z,6.15
2022-09-03T06:28:57.369Z,6.00
2022-09-03T06:31:25.049Z,7.15
2022-09-03T06:33:53.131Z,7.00
2022-09-03T06:36:20.993Z,7.53
2022-09-03T06:38:47.881Z,7.05
2022-09-03T06:41:23.879Z,6.88
2022-09-03T06:43:59.137Z,7.30
2022-09-03T06:46:25.865Z,9.00
2022-09-03T06:48:53.458Z,7.32
2022-09-03T06:51:22.818Z,8.10
2022-09-03T06:53:51.765Z,8.80
2022-09-03T06:56:33.056Z,10.55
2022-09-03T06:59:06.345Z,10.98
2022-09-03T07:01:34.192Z,11.40
2022-09-03T07:04:03.572Z,11.00
2022-09-03T07:06:39.598Z,9.18
2022-09-03T07:09:07.474Z,9.02
2022-09-03T07:11:36.095Z,10.57
2022-09-03T07:14:05.449Z,8.60
2022-09-03T07:16:37.348Z,11.27
2022-09-03T07:19:06.140Z,12.55
2022-09-03T07:21:36.830Z,9.13
2022-09-03T07:24:05.752Z,8.10
2022-09-03T07:26:41.199Z,9.88
2022-09-03T07:29:08.163Z,9.32
2022-09-03T07:31:40.213Z,7.68
2022-09-03T07:34:10.484Z,7.05
2022-09-03T07:36:41.730Z,6.97
2022-09-03T07:39:10.105Z,9.25
2022-09-03T07:41:37.440Z,6.53
2022-09-03T07:44:07.867Z,7.82
2022-09-03T07:46:37.920Z,7.38
2022-09-03T07:49:06.414Z,6.20
2022-09-03T07:51:36.213Z,6.88
2022-09-03T07:54:07.015Z,7.25
2022-09-03T07:56:35.244Z,7.68
2022-09-03T07:59:03.335Z,7.03
2022-09-03T08:01:34.007Z,6.32
2022-09-03T08:04:02.727Z,6.68
2022-09-03T08:06:31.235Z,6.25
2022-09-03T08:09:04.886Z,7.82
2022-09-03T08:11:35.311Z,7.05
2022-09-03T08:14:06.441Z,10.73
2022-09-03T08:16:51.604Z,6.85
2022-09-03T08:19:18.855Z,7.38
2022-09-03T08:21:46.042Z,7.40
2022-09-03T08:24:16.148Z,8.63
2022-09-03T08:26:47.614Z,7.03
2022-09-03T08:29:18.548Z,6.45
2022-09-03T08:31:45.318Z,7.60
2022-09-03T08:34:13.297Z,6.75
2022-09-03T08:36:41.553Z,5.13
2022-09-03T08:39:11.003Z,5.88
2022-09-03T08:41:56.300Z,5.35
2022-09-03T08:44:28.051Z,4.97
2022-09-03T08:47:00.975Z,7.00
2022-09-03T08:49:43.174Z,7.20
2022-09-03T08:52:26.329Z,8.35
2022-09-03T08:54:59.605Z,5.38
2022-09-03T08:57:26.374Z,6.32
2022-09-03T08:59:56.521Z,7.25
2022-09-03T09:02:39.954Z,6.50
2022-09-03T09:05:31.066Z,6.00
2022-09-03T09:08:18.934Z,5.97
2022-09-03T09:10:49.221Z,5.47
2022-09-03T09:13:17.364Z,7.65
2022-09-03T09:15:59.149Z,5.90
2022-09-03T09:18:56.759Z,5.70
2022-09-03T09:21:34.472Z,6.13
2022-09-03T09:24:06.042Z,7.25
2022-09-03T09:26:33.669Z,5.43
2022-09-03T09:29:06.131Z,6.80
2022-09-03T09:31:37.594Z,5.70
2022-09-03T09:34:07.190Z,5.28
2022-09-03T09:36:47.418Z,6.32
2022-09-03T09:39:17.753Z,6.90
2022-09-03T09:41:56.691Z,5.38
2022-09-03T09:44:26.488Z,4.68
2022-09-03T09:47:06.811Z,6.25
2022-09-03T09:49:56.189Z,5.20
2022-09-03T09:52:26.119Z,6.07
2022-09-03T09:54:55.023Z,4.85
2022-09-03T09:57:24.790Z,5.45
2022-09-03T10:00:13.471Z,4.40
2022-09-03T10:02:48.148Z,5.43
2022-09-03T10:05:31.472Z,6.22
2022-09-03T10:08:00.936Z,5.15
2022-09-03T10:10:29.305Z,6.10
2022-09-03T10:13:19.511Z,5.57
2022-09-03T10:15:56.114Z,5.22
2022-09-03T10:18:29.283Z,5.88
2022-09-03T10:21:07.734Z,4.32
2022-09-03T10:24:00.149Z,8.63
2022-09-03T10:26:33.149Z,3.60
2022-09-03T10:29:02.648Z,6.20
2022-09-03T10:31:44.217Z,5.82
2022-09-03T10:34:22.517Z,5.97
2022-09-03T10:37:15.882Z,4.40
2022-09-03T10:40:20.967Z,6.25
2022-09-03T10:42:52.107Z,4.88
2022-09-03T10:46:06.532Z,5.45
2022-09-03T10:48:39.244Z,4.88
2022-09-03T10:51:15.108Z,5.93
2022-09-03T10:53:56.745Z,5.50
2022-09-03T10:56:41.775Z,4.80
2022-09-03T10:59:30.378Z,4.45
2022-09-03T11:02:32.025Z,5.05
2022-09-03T11:05:08.119Z,6.97
2022-09-03T11:07:45.278Z,8.43
2022-09-03T11:10:32.814Z,5.15
2022-09-03T11:13:18.742Z,4.60
2022-09-03T11:16:09.524Z,5.05
2022-09-03T11:18:48.964Z,5.05
2022-09-03T11:21:20.976Z,6.00
2022-09-03T11:24:17.363Z,7.10
2022-09-03T11:26:48.438Z,6.80
2022-09-03T11:29:25.333Z,4.78
2022-09-03T11:32:01.718Z,6.05
2022-09-03T11:34:32.481Z,4.43
2022-09-03T11:37:27.558Z,5.05
2022-09-03T11:40:26.989Z,6.88
2022-09-03T11:42:53.637Z,5.40
2022-09-03T11:45:40.235Z,4.38
2022-09-03T11:48:34.283Z,5.22
2022-09-03T11:51:00.944Z,4.05
2022-09-03T11:53:36.789Z,4.05
2022-09-03T11:56:06.530Z,5.32
2022-09-03T11:58:36.740Z,5.05
2022-09-03T12:01:10.370Z,4.20
2022-09-03T12:03:51.798Z,5.10
2022-09-03T12:06:30.713Z,4.13
2022-09-03T12:09:18.433Z,4.95
2022-09-03T12:11:53.292Z,6.25
2022-09-03T12:14:47.215Z,4.88
2022-09-03T12:17:25.990Z,3.75
2022-09-03T12:19:57.817Z,4.18
2022-09-03T12:22:31.429Z,3.25
2022-09-03T12:25:12.035Z,4.53
2022-09-03T12:27:41.165Z,5.80
2022-09-03T12:30:17.333Z,6.68
2022-09-03T12:32:45.550Z,7.55
2022-09-03T12:38:24.146Z,5.95
2022-09-03T12:43:38.712Z,5.22
2022-09-03T12:46:14.754Z,6.10
2022-09-03T12:51:55.807Z,3.78
2022-09-03T12:54:23.776Z,3.85
2022-09-03T12:57:00.531Z,3.80
2022-09-03T12:59:32.596Z,3.85
2022-09-03T13:02:06.833Z,4.10
2022-09-03T13:04:36.729Z,6.32
2022-09-03T13:07:05.900Z,5.05
2022-09-03T13:09:36.604Z,6.68
2022-09-03T13:12:06.822Z,3.85
2022-09-03T13:14:48.365Z,3.47
2022-09-03T13:17:37.397Z,4.75
2022-09-03T13:20:29.430Z,4.85
2022-09-03T13:23:16.932Z,4.32
2022-09-03T13:26:17.529Z,4.07
2022-09-03T13:29:31.260Z,3.38
2022-09-03T13:32:12.481Z,4.40
2022-09-03T13:34:54.954Z,3.25
2022-09-03T13:37:34.186Z,4.57
2022-09-03T13:40:15.994Z,3.38
2022-09-03T13:42:53.337Z,3.78
2022-09-03T13:45:32.593Z,3.40
2022-09-03T13:48:47.250Z,2.65
2022-09-03T13:51:16.616Z,4.82
2022-09-03T13:53:50.639Z,3.80
2022-09-03T13:56:36.870Z,4.93
2022-09-03T13:59:40.213Z,3.85
2022-09-03T14:02:40.276Z,4.15
2022-09-03T14:05:19.734Z,3.80
2022-09-03T14:07:58.573Z,2.92
2022-09-03T14:10:34.103Z,3.88
2022-09-03T14:13:11.970Z,4.07
2022-09-03T14:15:48.441Z,4.47
2022-09-03T14:18:32.362Z,4.43
2022-09-03T14:21:22.724Z,4.75
2022-09-03T14:23:53.118Z,3.30
2022-09-03T14:26:38.578Z,5.30
2022-09-03T14:29:12.581Z,3.72
2022-09-03T14:31:39.255Z,4.07
2022-09-03T14:34:08.954Z,4.10
2022-09-03T14:36:44.031Z,4.40
2022-09-03T14:39:48.485Z,3.42
2022-09-03T14:42:53.023Z,4.60
2022-09-03T14:45:25.343Z,4.68
2022-09-03T14:48:08.463Z,4.18
2022-09-03T14:50:38.125Z,4.03
2022-09-03T14:53:10.889Z,3.67
2022-09-03T14:58:24.068Z,4.07
2022-09-03T15:01:11.441Z,4.50
2022-09-03T15:04:34.145Z,4.22
2022-09-03T15:07:33.052Z,4.50
2022-09-03T15:10:06.157Z,4.30
2022-09-03T15:12:57.730Z,3.55
2022-09-03T15:15:55.870Z,3.63
2022-09-03T15:18:58.898Z,5.43
2022-09-03T15:21:48.665Z,3.47
2022-09-03T15:24:37.490Z,4.20
2022-09-03T15:27:18.519Z,2.97
2022-09-03T15:30:15.238Z,4.63
2022-09-03T15:32:54.041Z,3.67
2022-09-03T15:35:29.553Z,4.80
2022-09-03T15:38:00.325Z,3.60
2022-09-03T15:40:35.289Z,3.33
2022-09-03T15:43:21.930Z,3.13
2022-09-03T15:45:48.625Z,3.25
2022-09-03T15:48:35.029Z,3.92
2022-09-03T15:51:39.229Z,3.40
2022-09-03T15:54:27.162Z,4.72
2022-09-03T15:57:34.374Z,4.35
2022-09-03T16:00:11.331Z,3.65
2022-09-03T16:02:45.438Z,4.32
2022-09-03T16:05:19.991Z,4.45
2022-09-03T16:08:00.107Z,4.22
2022-09-03T16:10:46.463Z,4.50
2022-09-03T16:13:34.988Z,5.63
2022-09-03T16:16:09.734Z,3.75
2022-09-03T16:18:41.502Z,4.95
2022-09-03T16:21:58.670Z,4.22
2022-09-03T16:24:46.854Z,3.85
2022-09-03T16:27:22.879Z,4.70
2022-09-03T16:30:02.582Z,5.13
2022-09-03T16:32:48.448Z,4.60
2022-09-03T16:35:21.777Z,4.63
2022-09-03T16:38:01.262Z,3.50
2022-09-03T16:40:49.366Z,4.30
2022-09-03T16:43:44.663Z,5.70
2022-09-03T16:46:18.863Z,4.47
2022-09-03T16:48:51.314Z,4.18
2022-09-03T16:51:58.956Z,4.47
2022-09-03T16:54:56.067Z,6.30
2022-09-03T16:57:29.930Z,6.47
2022-09-03T17:00:02.585Z,5.65
2022-09-03T17:02:51.127Z,4.53
2022-09-03T17:05:41.888Z,5.40
2022-09-03T17:08:15.026Z,4.68
2022-09-03T17:10:49.839Z,5.43
2022-09-03T17:13:57.448Z,4.60
2022-09-03T17:16:45.993Z,4.93
2022-09-03T17:19:27.054Z,4.43
2022-09-03T17:22:15.861Z,4.63
2022-09-03T17:24:56.362Z,5.57
2022-09-03T17:27:26.619Z,4.30
2022-09-03T17:30:15.969Z,3.83
2022-09-03T17:33:06.991Z,4.90
2022-09-03T17:35:48.926Z,8.55
2022-09-03T17:38:43.318Z,5.55
2022-09-03T17:41:18.722Z,6.80
2022-09-03T17:43:58.689Z,5.72
2022-09-03T17:46:42.873Z,8.52
2022-09-03T17:49:23.817Z,8.57
2022-09-03T17:52:09.757Z,6.72
2022-09-03T17:54:51.849Z,5.43
2022-09-03T17:57:26.876Z,6.18
2022-09-03T18:00:12.561Z,3.40
2022-09-03T18:03:16.732Z,4.55
2022-09-03T18:06:01.170Z,4.13
2022-09-03T18:08:36.152Z,4.65
2022-09-03T18:11:22.461Z,1.75
2022-09-03T18:14:00.962Z,1.95
2022-09-03T18:16:31.790Z,3.67
2022-09-03T18:19:09.097Z,4.53
2022-09-03T18:21:57.697Z,2.42
2022-09-03T18:25:04.188Z,2.10
2022-09-03T18:28:02.438Z,2.05
2022-09-03T18:30:47.696Z,1.35
2022-09-03T18:33:37.219Z,2.33
2022-09-03T18:36:23.957Z,2.33
2022-09-03T18:39:09.122Z,1.70
2022-09-03T18:42:16.262Z,2.83
2022-09-03T18:45:21.445Z,1.10
2022-09-03T18:48:46.516Z,2.90
2022-09-03T18:54:50.554Z,1.90
2022-09-03T18:57:49.713Z,2.25
2022-09-03T19:00:35.823Z,3.33
2022-09-03T19:03:58.651Z,1.45
2022-09-03T19:07:12.418Z,3.28
2022-09-03T19:10:16.815Z,1.95
2022-09-03T19:13:37.198Z,2.40
2022-09-03T19:16:24.892Z,1.80
2022-09-03T19:19:33.638Z,2.42
2022-09-03T19:22:27.783Z,2.22
2022-09-03T19:25:20.326Z,1.13
2022-09-03T19:28:08.540Z,2.03
2022-09-03T19:31:42.200Z,1.83
2022-09-03T19:34:59.575Z,3.35
2022-09-03T19:37:53.875Z,2.45
2022-09-03T19:40:59.024Z,1.85
2022-09-03T19:47:13.267Z,2.25
2022-09-03T19:50:18.622Z,2.30
2022-09-03T19:53:03.496Z,1.38
2022-09-03T19:56:07.175Z,1.67
2022-09-03T19:58:56.563Z,2.38
2022-09-03T20:01:48.131Z,1.67
2022-09-03T20:04:35.084Z,1.40
2022-09-03T20:07:23.775Z,2.35
2022-09-03T20:10:12.425Z,1.75
2022-09-03T20:12:43.407Z,3.88
2022-09-03T20:15:10.536Z,3.13
2022-09-03T20:18:05.178Z,3.28
2022-09-03T20:20:41.908Z,2.35
2022-09-03T20:23:50.162Z,3.00
2022-09-03T20:26:46.195Z,1.60
2022-09-03T20:29:40.760Z,1.60
2022-09-03T20:32:48.611Z,2.60
2022-09-03T20:35:19.842Z,2.28
2022-09-03T20:38:01.582Z,1.70
2022-09-03T20:40:49.168Z,1.58
2022-09-03T20:43:33.392Z,1.98
2022-09-03T20:46:10.299Z,2.20
2022-09-03T20:48:49.371Z,2.47
2022-09-03T20:51:27.411Z,1.80
2022-09-03T20:54:11.886Z,2.05
2022-09-03T20:56:53.477Z,2.47
2022-09-03T20:59:25.674Z,1.48
2022-09-03T21:01:58.715Z,2.08
2022-09-03T21:05:08.943Z,2.63
2022-09-03T21:07:46.865Z,2.92
2022-09-03T21:10:28.404Z,2.42
2022-09-03T21:13:13.206Z,2.88
2022-09-03T21:15:56.641Z,2.65
2022-09-03T21:18:35.631Z,2.05
2022-09-03T21:21:09.681Z,2.53
2022-09-03T21:23:50.947Z,1.92
2022-09-03T21:26:26.217Z,3.10
2022-09-03T21:29:05.814Z,3.65
2022-09-03T21:31:47.814Z,3.03
2022-09-03T21:34:20.443Z,4.55
2022-09-03T21:36:49.087Z,1.88
2022-09-03T21:39:20.420Z,2.20
2022-09-03T21:42:09.489Z,3.13
2022-09-03T21:44:52.023Z,3.10
2022-09-03T21:47:21.406Z,3.97
2022-09-03T21:50:05.442Z,2.90
2022-09-03T21:53:02.408Z,2.65
2022-09-03T21:55:50.342Z,2.33
2022-09-03T21:58:19.726Z,2.55
2022-09-03T22:00:47.640Z,2.40
2022-09-03T22:03:14.353Z,5.78
2022-09-03T22:05:51.985Z,3.25
2022-09-03T22:08:26.442Z,2.13
2022-09-03T22:11:16.185Z,2.30
2022-09-03T22:14:01.413Z,2.53
2022-09-03T22:16:43.710Z,3.03
2022-09-03T22:19:10.811Z,2.45
2022-09-03T22:22:01.192Z,3.20
2022-09-03T22:24:34.351Z,3.22
2022-09-03T22:27:44.417Z,2.40
2022-09-03T22:30:19.982Z,1.67
2022-09-03T22:33:22.564Z,3.42
2022-09-03T22:35:52.240Z,1.98
2022-09-03T22:38:41.313Z,1.70
2022-09-03T22:41:48.123Z,2.00
2022-09-03T22:44:35.559Z,2.00
2022-09-03T22:47:29.581Z,3.40
2022-09-03T22:50:09.464Z,2.17
2022-09-03T22:52:53.200Z,3.20
2022-09-03T22:55:23.374Z,3.35
2022-09-03T22:57:53.613Z,3.65
2022-09-03T23:00:21.204Z,4.43
2022-09-03T23:02:55.182Z,2.63
2022-09-03T23:05:59.065Z,4.45
2022-09-03T23:08:54.002Z,2.72
2022-09-03T23:11:39.714Z,2.63
2022-09-03T23:14:13.210Z,2.80
2022-09-03T23:16:43.549Z,3.22
2022-09-03T23:21:53.633Z,3.70
2022-09-03T23:24:27.845Z,2.40
2022-09-03T23:26:55.043Z,2.38
2022-09-03T23:29:43.838Z,2.60
2022-09-03T23:32:10.587Z,2.17
2022-09-03T23:34:39.377Z,1.75
2022-09-03T23:37:35.339Z,1.30
2022-09-03T23:40:26.309Z,1.92
2022-09-03T23:43:31.161Z,1.58
2022-09-03T23:46:25.477Z,2.85
2022-09-03T23:49:14.092Z,2.20
2022-09-03T23:52:11.542Z,3.25
2022-09-03T23:54:39.714Z,1.90
2022-09-03T23:57:32.440Z,1.88
